createdAt,value
2023-05-17T00:02:04.323Z,101079.06
2023-05-17T00:04:33.422Z,101078.50
2023-05-17T00:07:01.114Z,101082.66
2023-05-17T00:09:28.706Z,101092.41
2023-05-17T00:11:56.969Z,101083.16
2023-05-17T00:14:24.651Z,101083.66
2023-05-17T00:16:52.791Z,101085.00
2023-05-17T00:19:20.689Z,101087.56
2023-05-17T00:21:48.357Z,101087.19
2023-05-17T00:24:16.127Z,101097.88
2023-05-17T00:26:43.762Z,101097.16
2023-05-17T00:29:11.264Z,101096.94
2023-05-17T00:31:38.754Z,101095.59
2023-05-17T00:34:06.403Z,101097.03
2023-05-17T00:36:33.927Z,101088.41
2023-05-17T00:39:02.900Z,101087.81
2023-05-17T00:41:30.560Z,101082.47
2023-05-17T00:43:58.149Z,101088.53
2023-05-17T00:46:25.901Z,101087.69
2023-05-17T00:48:54.215Z,101086.84
2023-05-17T00:51:22.856Z,101085.88
2023-05-17T00:53:50.931Z,101088.03
2023-05-17T00:56:18.823Z,101088.03
2023-05-17T00:58:46.818Z,101094.63
2023-05-17T01:01:14.721Z,101086.72
2023-05-17T01:03:46.547Z,101082.94
2023-05-17T01:06:15.170Z,101085.63
2023-05-17T01:08:43.689Z,101088.91
2023-05-17T01:11:16.505Z,101085.38
2023-05-17T01:13:50.200Z,101091.59
2023-05-17T01:16:17.962Z,101090.38
2023-05-17T01:19:01.653Z,101083.94
2023-05-17T01:21:43.230Z,101084.41
2023-05-17T01:24:48.983Z,101102.44
2023-05-17T01:27:18.989Z,101101.00
2023-05-17T01:29:49.761Z,101099.66
2023-05-17T01:32:18.185Z,101106.59
2023-05-17T01:34:45.711Z,101093.19
2023-05-17T01:37:13.554Z,101089.44
2023-05-17T01:39:41.747Z,101088.59
2023-05-17T01:42:31.253Z,101086.41
2023-05-17T01:45:40.559Z,101084.47
2023-05-17T01:48:44.296Z,101081.66
2023-05-17T01:51:19.047Z,101087.63
2023-05-17T01:53:57.326Z,101085.78
2023-05-17T01:56:33.729Z,101091.25
2023-05-17T01:59:06.789Z,101096.13
2023-05-17T02:01:36.566Z,101093.91
2023-05-17T02:04:04.283Z,101099.53
2023-05-17T02:06:32.889Z,101095.50
2023-05-17T02:09:02.937Z,101097.63
2023-05-17T02:11:30.912Z,101110.63
2023-05-17T02:13:59.042Z,101109.06
2023-05-17T02:16:26.573Z,101102.34
2023-05-17T02:18:54.221Z,101109.72
2023-05-17T02:21:21.852Z,101109.63
2023-05-17T02:23:49.381Z,101110.72
2023-05-17T02:26:19.712Z,101113.75
2023-05-17T02:28:47.276Z,101111.94
2023-05-17T02:31:14.878Z,101118.97
2023-05-17T02:33:43.131Z,101124.72
2023-05-17T02:36:11.222Z,101125.16
2023-05-17T02:38:39.516Z,101131.72
2023-05-17T02:41:07.037Z,101138.28
2023-05-17T02:43:34.742Z,101133.97
2023-05-17T02:46:04.590Z,101130.19
2023-05-17T02:48:32.316Z,101138.56
2023-05-17T02:50:59.850Z,101135.41
2023-05-17T02:53:27.526Z,101142.72
2023-05-17T02:55:58.191Z,101140.75
2023-05-17T02:58:26.020Z,101146.22
2023-05-17T03:00:53.699Z,101142.72
2023-05-17T03:03:21.418Z,101153.66
2023-05-17T03:05:49.181Z,101157.25
2023-05-17T03:08:16.784Z,101166.03
2023-05-17T03:10:45.678Z,101159.94
2023-05-17T03:13:13.442Z,101162.00
2023-05-17T03:15:41.320Z,101165.41
2023-05-17T03:18:08.997Z,101175.25
2023-05-17T03:20:38.590Z,101166.66
2023-05-17T03:23:07.055Z,101171.16
2023-05-17T03:25:39.789Z,101175.63
2023-05-17T03:28:07.310Z,101180.38
2023-05-17T03:30:35.143Z,101176.38
2023-05-17T03:33:05.534Z,101179.91
2023-05-17T03:35:33.460Z,101176.63
2023-05-17T03:38:00.997Z,101186.97
2023-05-17T03:40:28.977Z,101178.56
2023-05-17T03:42:57.799Z,101189.28
2023-05-17T03:45:27.612Z,101183.88
2023-05-17T03:47:55.454Z,101186.34
2023-05-17T03:50:23.825Z,101186.22
2023-05-17T03:52:51.286Z,101191.44
2023-05-17T03:55:19.656Z,101194.75
2023-05-17T03:57:47.495Z,101197.03
2023-05-17T04:00:21.280Z,101205.09
2023-05-17T04:02:49.343Z,101204.38
2023-05-17T04:05:19.372Z,101198.81
2023-05-17T04:07:48.600Z,101199.78
2023-05-17T04:10:16.331Z,101207.19
2023-05-17T04:12:46.226Z,101209.03
2023-05-17T04:15:13.863Z,101211.97
2023-05-17T04:17:43.089Z,101212.94
2023-05-17T04:20:11.489Z,101204.41
2023-05-17T04:22:39.681Z,101209.28
2023-05-17T04:25:08.487Z,101211.00
2023-05-17T04:27:37.401Z,101218.66
2023-05-17T04:30:08.072Z,101215.13
2023-05-17T04:32:36.021Z,101211.59
2023-05-17T04:35:04.763Z,101216.34
2023-05-17T04:37:32.862Z,101212.81
2023-05-17T04:40:07.998Z,101215.50
2023-05-17T04:42:35.823Z,101226.94
2023-05-17T04:45:05.538Z,101225.84
2023-05-17T04:47:33.186Z,101224.75
2023-05-17T04:50:01.473Z,101232.16
2023-05-17T04:52:29.231Z,101224.13
2023-05-17T04:54:57.064Z,101232.28
2023-05-17T04:57:24.634Z,101231.16
2023-05-17T04:59:58.709Z,101229.94
2023-05-17T05:02:27.307Z,101226.44
2023-05-17T05:04:54.965Z,101238.50
2023-05-17T05:07:22.597Z,101236.03
2023-05-17T05:09:50.551Z,101236.25
2023-05-17T05:12:19.415Z,101233.22
2023-05-17T05:14:48.174Z,101235.25
2023-05-17T05:17:15.872Z,101242.59
2023-05-17T05:19:43.545Z,101240.63
2023-05-17T05:22:11.661Z,101244.25
2023-05-17T05:24:40.199Z,101245.97
2023-05-17T05:27:08.041Z,101237.50
2023-05-17T05:29:36.861Z,101244.00
2023-05-17T05:32:04.667Z,101248.59
2023-05-17T05:34:38.978Z,101248.25
2023-05-17T05:37:06.733Z,101253.16
2023-05-17T05:39:34.794Z,101250.50
2023-05-17T05:42:04.335Z,101254.34
2023-05-17T05:44:32.792Z,101258.78
2023-05-17T05:47:00.935Z,101255.34
2023-05-17T05:49:28.567Z,101260.13
2023-05-17T05:51:56.415Z,101259.72
2023-05-17T05:54:25.948Z,101251.31
2023-05-17T05:56:54.621Z,101248.56
2023-05-17T05:59:22.339Z,101253.00
2023-05-17T06:01:49.966Z,101257.00
2023-05-17T06:04:17.512Z,101256.63
2023-05-17T06:06:45.183Z,101247.41
2023-05-17T06:09:12.927Z,101249.09
2023-05-17T06:11:40.544Z,101245.41
2023-05-17T06:14:08.509Z,101247.53
2023-05-17T06:16:36.459Z,101242.69
2023-05-17T06:19:04.520Z,101246.97
2023-05-17T06:21:32.455Z,101244.84
2023-05-17T06:23:59.982Z,101243.00
2023-05-17T06:26:27.654Z,101246.22
2023-05-17T06:28:55.151Z,101252.94
2023-05-17T06:31:22.724Z,101246.88
2023-05-17T06:33:50.392Z,101253.03
2023-05-17T06:36:17.902Z,101242.28
2023-05-17T06:38:45.479Z,101231.69
2023-05-17T06:41:13.266Z,101238.13
2023-05-17T06:43:40.930Z,101239.13
2023-05-17T06:46:08.624Z,101249.22
2023-05-17T06:48:36.414Z,101249.94
2023-05-17T06:51:04.044Z,101242.16
2023-05-17T06:53:32.220Z,101244.00
2023-05-17T06:55:59.856Z,101241.44
2023-05-17T06:58:27.408Z,101249.66
2023-05-17T07:00:55.033Z,101245.56
2023-05-17T07:03:23.001Z,101245.84
2023-05-17T07:05:50.649Z,101249.25
2023-05-17T07:08:18.390Z,101244.31
2023-05-17T07:10:46.552Z,101236.66
2023-05-17T07:13:14.189Z,101236.94
2023-05-17T07:15:41.775Z,101244.72
2023-05-17T07:18:11.265Z,101245.16
2023-05-17T07:20:38.985Z,101255.34
2023-05-17T07:23:06.730Z,101250.38
2023-05-17T07:25:34.369Z,101250.38
2023-05-17T07:28:01.912Z,101252.66
2023-05-17T07:30:31.526Z,101249.41
2023-05-17T07:32:59.625Z,101253.31
2023-05-17T07:35:27.260Z,101246.34
2023-05-17T07:37:55.124Z,101244.28
2023-05-17T07:40:22.766Z,101241.16
2023-05-17T07:42:50.651Z,101249.63
2023-05-17T07:45:18.768Z,101241.00
2023-05-17T07:47:46.424Z,101252.19
2023-05-17T07:50:14.091Z,101250.13
2023-05-17T07:52:41.793Z,101253.09
2023-05-17T07:55:10.128Z,101250.53
2023-05-17T07:57:38.114Z,101252.88
2023-05-17T08:00:08.898Z,101251.94
2023-05-17T08:02:41.349Z,101249.59
2023-05-17T08:05:09.703Z,101249.84
2023-05-17T08:07:37.868Z,101251.88
2023-05-17T08:10:05.935Z,101248.47
2023-05-17T08:12:33.856Z,101246.59
2023-05-17T08:15:01.436Z,101246.19
2023-05-17T08:17:29.254Z,101249.69
2023-05-17T08:19:57.870Z,101250.34
2023-05-17T08:22:26.504Z,101245.97
2023-05-17T08:24:54.083Z,101247.25
2023-05-17T08:27:21.709Z,101242.13
2023-05-17T08:29:49.604Z,101248.34
2023-05-17T08:32:17.285Z,101242.50
2023-05-17T08:34:44.858Z,101235.75
2023-05-17T08:37:12.548Z,101227.94
2023-05-17T08:39:40.265Z,101236.13
2023-05-17T08:42:08.409Z,101223.75
2023-05-17T08:44:37.235Z,101226.75
2023-05-17T08:47:07.651Z,101231.69
2023-05-17T08:49:38.116Z,101229.72
2023-05-17T08:52:10.212Z,101230.34
2023-05-17T08:54:38.054Z,101223.41
2023-05-17T08:57:07.407Z,101223.13
2023-05-17T08:59:35.457Z,101220.38
2023-05-17T09:02:05.768Z,101216.41
2023-05-17T09:04:34.294Z,101226.25
2023-05-17T09:07:02.069Z,101214.47
2023-05-17T09:09:30.006Z,101210.22
2023-05-17T09:11:57.563Z,101208.56
2023-05-17T09:14:25.161Z,101204.53
2023-05-17T09:17:00.105Z,101201.34
2023-05-17T09:19:28.244Z,101197.00
2023-05-17T09:21:56.148Z,101193.63
2023-05-17T09:24:31.016Z,101196.94
2023-05-17T09:27:03.726Z,101190.06
2023-05-17T09:29:32.775Z,101195.88
2023-05-17T09:32:20.997Z,101190.03
2023-05-17T09:34:48.763Z,101194.97
2023-05-17T09:37:17.635Z,101192.09
2023-05-17T09:39:47.040Z,101189.19
2023-05-17T09:42:16.864Z,101185.53
2023-05-17T09:44:57.657Z,101183.63
2023-05-17T09:47:29.289Z,101178.25
2023-05-17T09:50:00.715Z,101175.09
2023-05-17T09:52:32.363Z,101174.88
2023-05-17T09:55:01.148Z,101185.94
2023-05-17T09:57:37.902Z,101181.63
2023-05-17T10:00:12.420Z,101188.00
2023-05-17T10:02:48.327Z,101182.81
2023-05-17T10:05:17.930Z,101177.78
2023-05-17T10:07:48.066Z,101175.50
2023-05-17T10:10:18.211Z,101168.72
2023-05-17T10:12:47.455Z,101178.75
2023-05-17T10:15:17.838Z,101182.28
2023-05-17T10:17:46.302Z,101175.94
2023-05-17T10:20:15.725Z,101179.84
2023-05-17T10:22:44.062Z,101168.41
2023-05-17T10:25:12.631Z,101168.09
2023-05-17T10:27:41.927Z,101162.59
2023-05-17T10:30:11.603Z,101169.03
2023-05-17T10:32:39.933Z,101161.88
2023-05-17T10:35:12.026Z,101154.66
2023-05-17T10:37:41.364Z,101164.47
2023-05-17T10:40:14.034Z,101163.66
2023-05-17T10:42:46.940Z,101161.78
2023-05-17T10:45:14.948Z,101164.75
2023-05-17T10:47:43.622Z,101150.78
2023-05-17T10:50:13.331Z,101152.59
2023-05-17T10:52:48.916Z,101155.28
2023-05-17T10:55:20.978Z,101153.28
2023-05-17T10:58:16.140Z,101152.53
2023-05-17T11:00:47.557Z,101145.03
2023-05-17T11:03:18.568Z,101147.25
2023-05-17T11:06:23.333Z,101144.41
2023-05-17T11:09:13.860Z,101143.06
2023-05-17T11:12:05.509Z,101132.19
2023-05-17T11:14:45.644Z,101130.47
2023-05-17T11:17:20.762Z,101133.09
2023-05-17T11:19:55.034Z,101126.44
2023-05-17T11:22:37.260Z,101124.81
2023-05-17T11:25:09.294Z,101116.31
2023-05-17T11:27:39.891Z,101123.31
2023-05-17T11:30:31.808Z,101123.75
2023-05-17T11:33:05.717Z,101127.53
2023-05-17T11:35:39.575Z,101124.84
2023-05-17T11:38:24.510Z,101124.72
2023-05-17T11:40:56.905Z,101110.97
2023-05-17T11:43:27.428Z,101116.00
2023-05-17T11:46:01.724Z,101098.31
2023-05-17T11:48:31.623Z,101107.78
2023-05-17T11:51:01.518Z,101101.59
2023-05-17T11:53:31.253Z,101101.97
2023-05-17T11:56:04.181Z,101088.72
2023-05-17T11:58:32.193Z,101102.72
2023-05-17T12:00:59.764Z,101083.25
2023-05-17T12:03:29.251Z,101087.63
2023-05-17T12:06:13.253Z,101076.16
2023-05-17T12:08:46.487Z,101085.75
2023-05-17T12:11:18.963Z,101075.94
2023-05-17T12:13:49.138Z,101081.22
2023-05-17T12:16:22.611Z,101066.56
2023-05-17T12:18:52.150Z,101072.16
2023-05-17T12:21:21.471Z,101055.94
2023-05-17T12:23:52.090Z,101062.38
2023-05-17T12:26:22.468Z,101065.41
2023-05-17T12:28:58.168Z,101063.34
2023-05-17T12:31:30.137Z,101058.31
2023-05-17T12:33:59.447Z,101055.59
2023-05-17T12:36:29.824Z,101053.88
2023-05-17T12:38:57.821Z,101050.97
2023-05-17T12:41:26.783Z,101045.78
2023-05-17T12:44:06.314Z,101045.56
2023-05-17T12:46:42.164Z,101057.06
2023-05-17T12:49:11.968Z,101051.38
2023-05-17T12:51:42.404Z,101051.50
2023-05-17T12:54:10.604Z,101050.69
2023-05-17T12:56:38.332Z,101043.75
2023-05-17T12:59:15.462Z,101054.38
2023-05-17T13:01:45.739Z,101047.13
2023-05-17T13:04:15.186Z,101041.34
2023-05-17T13:07:00.020Z,101051.19
2023-05-17T13:09:31.043Z,101043.75
2023-05-17T13:11:59.757Z,101042.00
2023-05-17T13:14:46.515Z,101031.25
2023-05-17T13:17:34.713Z,101041.00
2023-05-17T13:20:02.457Z,101041.34
2023-05-17T13:22:30.317Z,101040.34
2023-05-17T13:24:57.868Z,101040.22
2023-05-17T13:27:25.512Z,101038.34
2023-05-17T13:29:53.268Z,101037.66
2023-05-17T13:32:21.332Z,101034.81
2023-05-17T13:34:48.886Z,101039.69
2023-05-17T13:37:16.524Z,101031.25
2023-05-17T13:39:44.133Z,101030.88
2023-05-17T13:42:13.119Z,101033.41
2023-05-17T13:44:40.838Z,101035.47
2023-05-17T13:47:08.526Z,101036.66
2023-05-17T13:49:36.350Z,101032.25
2023-05-17T13:52:03.943Z,101026.81
2023-05-17T13:54:31.840Z,101031.91
2023-05-17T13:56:59.526Z,101025.81
2023-05-17T13:59:27.640Z,101019.09
2023-05-17T14:01:55.211Z,101016.19
2023-05-17T14:04:22.862Z,101022.09
2023-05-17T14:06:54.119Z,101021.91
2023-05-17T14:09:22.683Z,101018.91
2023-05-17T14:11:50.290Z,101020.06
2023-05-17T14:14:17.923Z,101020.09
2023-05-17T14:16:46.011Z,101010.94
2023-05-17T14:19:13.624Z,101012.31
2023-05-17T14:21:41.204Z,101006.56
2023-05-17T14:24:08.768Z,100997.94
2023-05-17T14:26:37.288Z,100998.09
2023-05-17T14:29:07.977Z,101005.22
2023-05-17T14:31:35.697Z,101004.38
2023-05-17T14:34:04.017Z,101005.19
2023-05-17T14:36:34.021Z,101005.56
2023-05-17T14:39:01.788Z,101005.69
2023-05-17T14:41:29.561Z,101002.44
2023-05-17T14:43:57.170Z,100995.63
2023-05-17T14:46:24.908Z,101000.91
2023-05-17T14:48:52.628Z,101005.13
2023-05-17T14:51:20.370Z,101001.63
2023-05-17T14:53:48.216Z,100995.41
2023-05-17T14:56:16.878Z,100998.19
2023-05-17T14:58:44.602Z,101001.47
2023-05-17T15:01:12.256Z,100998.22
2023-05-17T15:03:39.911Z,100994.44
2023-05-17T15:06:09.533Z,100994.34
2023-05-17T15:08:40.766Z,101001.22
2023-05-17T15:11:09.622Z,100998.69
2023-05-17T15:13:38.263Z,100996.72
2023-05-17T15:16:06.301Z,101007.41
2023-05-17T15:18:33.960Z,101002.72
2023-05-17T15:21:02.660Z,100994.66
2023-05-17T15:23:30.430Z,101002.28
2023-05-17T15:25:58.089Z,101000.19
2023-05-17T15:28:25.797Z,101001.00
2023-05-17T15:31:06.412Z,100995.16
2023-05-17T15:33:34.161Z,100998.25
2023-05-17T15:36:02.100Z,100997.78
2023-05-17T15:38:30.031Z,100993.06
2023-05-17T15:41:06.617Z,100992.75
2023-05-17T15:43:35.100Z,101003.78
2023-05-17T15:46:02.647Z,101008.72
2023-05-17T15:48:31.105Z,100996.09
2023-05-17T15:51:01.368Z,101000.09
2023-05-17T15:53:30.021Z,100992.97
2023-05-17T15:55:57.641Z,101001.28
2023-05-17T15:58:28.068Z,100995.22
2023-05-17T16:00:55.979Z,100995.50
2023-05-17T16:03:23.530Z,101003.28
2023-05-17T16:05:51.679Z,100993.56
2023-05-17T16:08:20.449Z,101000.44
2023-05-17T16:10:48.104Z,100991.97
2023-05-17T16:13:16.324Z,100991.03
2023-05-17T16:15:43.918Z,100998.63
2023-05-17T16:18:13.815Z,100992.81
2023-05-17T16:20:41.998Z,100994.44
2023-05-17T16:23:09.942Z,100985.03
2023-05-17T16:25:37.695Z,100990.22
2023-05-17T16:28:05.402Z,100988.00
2023-05-17T16:30:33.330Z,100984.34
2023-05-17T16:33:01.403Z,100997.75
2023-05-17T16:35:29.347Z,100994.09
2023-05-17T16:37:57.034Z,100991.56
2023-05-17T16:40:24.607Z,101003.59
2023-05-17T16:42:52.111Z,101003.94
2023-05-17T16:45:20.078Z,100995.28
2023-05-17T16:47:47.682Z,100996.63
2023-05-17T16:50:15.327Z,101010.13
2023-05-17T16:52:42.941Z,101001.53
2023-05-17T16:55:10.557Z,101014.09
2023-05-17T16:57:38.415Z,101009.00
2023-05-17T17:00:06.699Z,101013.91
2023-05-17T17:02:34.525Z,101005.28
2023-05-17T17:05:04.454Z,101012.81
2023-05-17T17:07:32.683Z,101008.78
2023-05-17T17:10:00.321Z,101024.59
2023-05-17T17:12:27.912Z,101023.78
2023-05-17T17:14:55.936Z,101016.41
2023-05-17T17:17:23.491Z,101013.31
2023-05-17T17:19:51.299Z,101022.97
2023-05-17T17:22:18.906Z,101022.44
2023-05-17T17:24:46.538Z,101021.88
2023-05-17T17:27:14.214Z,101032.22
2023-05-17T17:29:41.802Z,101028.16
2023-05-17T17:32:09.609Z,101031.72
2023-05-17T17:34:37.496Z,101035.97
2023-05-17T17:37:05.498Z,101042.50
2023-05-17T17:39:33.526Z,101038.56
2023-05-17T17:42:01.959Z,101035.44
2023-05-17T17:44:29.720Z,101030.94
2023-05-17T17:46:57.254Z,101034.63
2023-05-17T17:49:24.919Z,101040.16
2023-05-17T17:51:52.744Z,101038.47
2023-05-17T17:54:20.409Z,101037.19
2023-05-17T17:56:48.012Z,101032.06
2023-05-17T17:59:15.536Z,101026.97
2023-05-17T18:01:43.912Z,101033.78
2023-05-17T18:04:13.656Z,101036.88
2023-05-17T18:06:43.801Z,101022.75
2023-05-17T18:09:11.593Z,101033.50
2023-05-17T18:11:39.557Z,101030.13
2023-05-17T18:14:08.216Z,101030.81
2023-05-17T18:16:36.278Z,101030.53
2023-05-17T18:19:04.003Z,101027.28
2023-05-17T18:21:31.766Z,101031.38
2023-05-17T18:24:00.418Z,101037.31
2023-05-17T18:26:27.927Z,101034.63
2023-05-17T18:28:55.485Z,101038.63
2023-05-17T18:31:23.104Z,101028.84
2023-05-17T18:33:50.692Z,101029.72
2023-05-17T18:36:18.433Z,101031.25
2023-05-17T18:38:45.971Z,101027.00
2023-05-17T18:41:13.537Z,101024.44
2023-05-17T18:43:41.086Z,101031.53
2023-05-17T18:46:08.759Z,101030.13
2023-05-17T18:48:37.057Z,101028.69
2023-05-17T18:51:04.717Z,101029.69
2023-05-17T18:53:32.427Z,101028.28
2023-05-17T18:56:02.544Z,101027.84
2023-05-17T18:58:30.277Z,101026.31
2023-05-17T19:00:58.062Z,101029.41
2023-05-17T19:03:25.717Z,101031.09
2023-05-17T19:05:53.481Z,101027.28
2023-05-17T19:08:21.142Z,101027.38
2023-05-17T19:10:48.817Z,101026.97
2023-05-17T19:13:16.461Z,101016.91
2023-05-17T19:15:44.032Z,101019.69
2023-05-17T19:18:11.672Z,101014.63
2023-05-17T19:20:39.312Z,101015.63
2023-05-17T19:23:06.958Z,101020.25
2023-05-17T19:25:34.730Z,101015.16
2023-05-17T19:28:02.383Z,101022.59
2023-05-17T19:30:32.742Z,101019.50
2023-05-17T19:33:01.619Z,101016.81
2023-05-17T19:35:30.093Z,101014.25
2023-05-17T19:37:57.697Z,101016.94
2023-05-17T19:40:25.399Z,101024.16
2023-05-17T19:42:52.918Z,101015.41
2023-05-17T19:45:21.062Z,101016.19
2023-05-17T19:47:48.890Z,101021.13
2023-05-17T19:50:16.948Z,101019.16
2023-05-17T19:52:44.678Z,101018.56
2023-05-17T19:55:15.850Z,101021.94
2023-05-17T19:57:43.504Z,101016.00
2023-05-17T20:00:11.672Z,101017.69
2023-05-17T20:02:40.681Z,101018.38
2023-05-17T20:05:08.831Z,101016.75
2023-05-17T20:07:37.891Z,101018.59
2023-05-17T20:10:06.486Z,101012.59
2023-05-17T20:12:34.325Z,101013.41
2023-05-17T20:15:02.061Z,101015.38
2023-05-17T20:17:29.806Z,101013.66
2023-05-17T20:19:57.428Z,101012.50
2023-05-17T20:22:25.411Z,101015.72
2023-05-17T20:24:53.748Z,101019.75
2023-05-17T20:27:22.261Z,101020.59
2023-05-17T20:29:49.905Z,101023.09
2023-05-17T20:32:17.528Z,101017.72
2023-05-17T20:34:45.228Z,101020.22
2023-05-17T20:37:12.878Z,101016.09
2023-05-17T20:39:40.606Z,101023.41
2023-05-17T20:42:08.494Z,101016.94
2023-05-17T20:44:36.174Z,101014.19
2023-05-17T20:47:05.803Z,101016.41
2023-05-17T20:49:33.415Z,101009.84
2023-05-17T20:52:03.371Z,101007.66
2023-05-17T20:54:31.474Z,101013.25
2023-05-17T20:56:59.978Z,101008.50
2023-05-17T20:59:27.618Z,101012.03
2023-05-17T21:01:56.060Z,101021.56
2023-05-17T21:04:23.837Z,101019.13
2023-05-17T21:06:52.369Z,101017.69
2023-05-17T21:09:19.936Z,101017.56
2023-05-17T21:11:47.536Z,101017.41
2023-05-17T21:14:15.248Z,101021.78
2023-05-17T21:16:43.175Z,101023.63
2023-05-17T21:19:11.075Z,101016.22
2023-05-17T21:21:38.703Z,101020.38
2023-05-17T21:24:06.893Z,101013.44
2023-05-17T21:26:36.324Z,101014.53
2023-05-17T21:29:06.208Z,101011.75
2023-05-17T21:31:34.039Z,101015.50
2023-05-17T21:34:01.675Z,101014.19
2023-05-17T21:36:29.513Z,101012.00
2023-05-17T21:38:57.234Z,101012.88
2023-05-17T21:41:24.854Z,101010.22
2023-05-17T21:43:52.453Z,101018.59
2023-05-17T21:46:20.073Z,101018.97
2023-05-17T21:48:47.676Z,101021.16
2023-05-17T21:51:15.537Z,101024.72
2023-05-17T21:53:43.158Z,101020.97
2023-05-17T21:56:11.503Z,101017.81
2023-05-17T21:58:39.201Z,101013.91
2023-05-17T22:01:07.396Z,101016.84
2023-05-17T22:03:35.136Z,101015.88
2023-05-17T22:06:02.913Z,101008.34
2023-05-17T22:08:32.208Z,101004.47
2023-05-17T22:10:59.756Z,101011.88
2023-05-17T22:13:27.654Z,101008.22
2023-05-17T22:15:58.853Z,101007.84
2023-05-17T22:18:27.664Z,101009.94
2023-05-17T22:20:55.365Z,101009.28
2023-05-17T22:23:23.090Z,101011.09
2023-05-17T22:25:50.771Z,101008.69
2023-05-17T22:28:18.578Z,101006.72
2023-05-17T22:30:46.597Z,101007.34
2023-05-17T22:33:14.697Z,101003.94
2023-05-17T22:35:42.245Z,100994.78
2023-05-17T22:38:11.370Z,100996.41
2023-05-17T22:40:38.900Z,101000.50
2023-05-17T22:43:08.327Z,101005.47
2023-05-17T22:45:36.315Z,101002.47
2023-05-17T22:48:05.881Z,101006.25
2023-05-17T22:50:34.230Z,101004.16
2023-05-17T22:53:01.766Z,101003.41
2023-05-17T22:55:29.948Z,101005.13
2023-05-17T22:57:58.162Z,101000.16
2023-05-17T23:00:26.330Z,100999.38
2023-05-17T23:02:54.029Z,101002.44
2023-05-17T23:05:22.347Z,101005.81
2023-05-17T23:07:49.887Z,101002.53
2023-05-17T23:10:17.465Z,101009.44
2023-05-17T23:12:45.281Z,101009.34
2023-05-17T23:15:12.828Z,101009.22
2023-05-17T23:17:41.277Z,101002.53
2023-05-17T23:20:10.510Z,101007.03
2023-05-17T23:22:39.314Z,101009.56
2023-05-17T23:25:07.180Z,101008.72
2023-05-17T23:27:35.783Z,101005.19
2023-05-17T23:30:04.472Z,101006.19
2023-05-17T23:32:32.759Z,101010.88
2023-05-17T23:35:04.300Z,101014.53
2023-05-17T23:37:36.270Z,101016.09
2023-05-17T23:40:09.464Z,101013.53
2023-05-17T23:42:37.845Z,101012.78
2023-05-17T23:45:06.043Z,101011.94
2023-05-17T23:47:33.934Z,101009.72
2023-05-17T23:50:03.064Z,101012.53
2023-05-17T23:52:32.741Z,101011.47
2023-05-17T23:55:01.681Z,101014.22
2023-05-17T23:57:29.767Z,101006.41
2023-05-17T23:59:57.347Z,101019.38
